Terminal Aerodrome Forecast
Issued by NWS

Home | Current Version | Previous Version | Text Only | Print | Product List | Glossary On
Versions: 1 2 3 4 5 6 7 8 9 10 11 12
968
FTUS46 KMTR 172341
TAFSTS
TAF
KSTS 172341Z 1800/1824 17008KT 6SM FU SKC
     FM180400 VRB03KT P6SM BKN200
     FM181300 VRB03KT 2SM BR SCT200
     FM181600 VRB03KT P6SM FEW200
     FM182200 17006KT P6SM SKC=

USA.gov is the U.S. government's official web portal to all federal, state and local government web resources and services.